createdAt,value
2023-01-19T00:00:52.110Z,13.90
2023-01-19T00:03:18.602Z,14.33
2023-01-19T00:05:45.372Z,15.37
2023-01-19T00:08:15.271Z,15.00
2023-01-19T00:10:46.710Z,14.60
2023-01-19T00:13:14.429Z,15.53
2023-01-19T00:15:40.910Z,12.37
2023-01-19T00:18:09.695Z,15.23
2023-01-19T00:20:37.542Z,17.40
2023-01-19T00:23:04.699Z,16.67
2023-01-19T00:25:31.180Z,13.03
2023-01-19T00:27:58.893Z,15.20
2023-01-19T00:30:26.888Z,15.23
2023-01-19T00:32:53.339Z,14.40
2023-01-19T00:35:19.912Z,13.77
2023-01-19T00:37:46.349Z,13.10
2023-01-19T00:40:13.944Z,14.47
2023-01-19T00:42:40.445Z,15.03
2023-01-19T00:45:09.230Z,12.80
2023-01-19T00:47:35.870Z,13.07
2023-01-19T00:50:03.446Z,16.20
2023-01-19T00:52:29.861Z,13.97
2023-01-19T00:54:56.303Z,11.63
2023-01-19T00:57:23.516Z,13.03
2023-01-19T00:59:50.084Z,16.03
2023-01-19T01:02:16.707Z,14.80
2023-01-19T01:04:43.300Z,14.90
2023-01-19T01:07:09.732Z,12.97
2023-01-19T01:09:36.520Z,15.40
2023-01-19T01:12:03.587Z,15.90
2023-01-19T01:14:32.423Z,16.33
2023-01-19T01:16:58.928Z,17.17
2023-01-19T01:19:25.323Z,13.67
2023-01-19T01:21:51.795Z,13.53
2023-01-19T01:24:18.764Z,12.27
2023-01-19T01:26:45.174Z,13.53
2023-01-19T01:29:11.787Z,14.70
2023-01-19T01:31:38.549Z,15.80
2023-01-19T01:34:05.679Z,14.17
2023-01-19T01:36:33.393Z,12.77
2023-01-19T01:39:00.223Z,11.93
2023-01-19T01:41:27.451Z,12.77
2023-01-19T01:43:58.431Z,16.10
2023-01-19T01:46:26.791Z,15.10
2023-01-19T01:49:12.027Z,13.37
2023-01-19T01:51:52.192Z,12.63
2023-01-19T01:54:33.476Z,12.00
2023-01-19T01:57:04.066Z,12.70
2023-01-19T01:59:39.285Z,14.07
2023-01-19T02:02:51.467Z,13.60
2023-01-19T02:05:33.501Z,13.80
2023-01-19T02:08:45.043Z,13.00
2023-01-19T02:11:30.133Z,15.80
2023-01-19T02:13:56.962Z,13.10
2023-01-19T02:16:23.533Z,12.50
2023-01-19T02:18:49.952Z,12.70
2023-01-19T02:21:23.702Z,14.03
2023-01-19T02:23:58.112Z,16.77
2023-01-19T02:26:30.959Z,15.00
2023-01-19T02:29:08.462Z,14.53
2023-01-19T02:31:37.305Z,17.47
2023-01-19T02:34:05.983Z,16.00
2023-01-19T02:36:41.025Z,16.27
2023-01-19T02:39:09.610Z,13.87
2023-01-19T02:41:45.263Z,15.37
2023-01-19T02:44:14.212Z,13.17
2023-01-19T02:46:41.052Z,13.17
2023-01-19T02:49:07.821Z,13.60
2023-01-19T02:51:35.307Z,14.83
2023-01-19T02:54:05.096Z,11.57
2023-01-19T02:56:47.421Z,12.00
2023-01-19T02:59:31.002Z,14.27
2023-01-19T03:02:19.427Z,14.93
2023-01-19T03:04:57.445Z,13.27
2023-01-19T03:07:54.694Z,13.87
2023-01-19T03:10:42.650Z,12.70
2023-01-19T03:13:27.781Z,14.40
2023-01-19T03:16:11.464Z,13.43
2023-01-19T03:18:40.301Z,12.37
2023-01-19T03:21:08.672Z,13.33
2023-01-19T03:23:40.490Z,16.93
2023-01-19T03:26:10.859Z,14.13
2023-01-19T03:28:40.995Z,13.37
2023-01-19T03:31:34.384Z,11.93
2023-01-19T03:34:06.811Z,13.80
2023-01-19T03:36:37.605Z,15.73
2023-01-19T03:39:06.810Z,14.93
2023-01-19T03:41:35.516Z,14.47
2023-01-19T03:44:03.381Z,13.43
2023-01-19T03:46:31.455Z,12.70
2023-01-19T03:48:58.531Z,14.30
2023-01-19T03:51:24.944Z,15.73
2023-01-19T03:53:51.459Z,13.47
2023-01-19T03:56:19.123Z,14.10
2023-01-19T03:58:45.934Z,13.40
2023-01-19T04:01:14.860Z,12.60
2023-01-19T04:03:42.205Z,12.90
2023-01-19T04:06:09.588Z,14.17
2023-01-19T04:08:36.929Z,12.40
2023-01-19T04:11:03.459Z,16.03
2023-01-19T04:13:31.426Z,14.87
2023-01-19T04:16:02.314Z,16.13
2023-01-19T04:18:31.940Z,12.80
2023-01-19T04:21:02.201Z,11.43
2023-01-19T04:23:28.969Z,15.17
2023-01-19T04:25:59.200Z,13.33
2023-01-19T04:28:26.131Z,14.30
2023-01-19T04:30:52.645Z,11.37
2023-01-19T04:33:19.869Z,13.67
2023-01-19T04:35:47.342Z,14.60
2023-01-19T04:38:13.786Z,16.60
2023-01-19T04:40:40.517Z,16.37
2023-01-19T04:43:07.876Z,14.93
2023-01-19T04:45:34.418Z,14.43
2023-01-19T04:48:01.234Z,15.83
2023-01-19T04:50:27.601Z,12.83
2023-01-19T04:52:53.998Z,12.77
2023-01-19T04:55:20.435Z,15.20
2023-01-19T04:57:46.845Z,15.67
2023-01-19T05:00:13.621Z,15.13
2023-01-19T05:02:42.147Z,13.80
2023-01-19T05:05:08.910Z,15.20
2023-01-19T05:07:35.811Z,14.67
2023-01-19T05:10:02.386Z,15.70
2023-01-19T05:12:28.778Z,14.40
2023-01-19T05:14:55.249Z,16.73
2023-01-19T05:17:22.375Z,16.60
2023-01-19T05:19:48.996Z,14.87
2023-01-19T05:22:16.186Z,16.47
2023-01-19T05:24:42.736Z,13.27
2023-01-19T05:27:09.404Z,13.10
2023-01-19T05:29:35.894Z,13.03
2023-01-19T05:32:02.889Z,13.20
2023-01-19T05:34:29.537Z,12.63
2023-01-19T05:36:56.644Z,13.03
2023-01-19T05:39:23.042Z,12.47
2023-01-19T05:41:49.462Z,12.47
2023-01-19T05:44:15.888Z,11.47
2023-01-19T05:46:42.397Z,14.50
2023-01-19T05:49:08.993Z,13.77
2023-01-19T05:51:38.059Z,11.33
2023-01-19T05:54:06.115Z,13.20
2023-01-19T05:56:33.109Z,12.27
2023-01-19T05:59:00.540Z,11.27
2023-01-19T06:01:28.204Z,13.63
2023-01-19T06:03:55.094Z,14.47
2023-01-19T06:06:21.540Z,11.73
2023-01-19T06:08:48.147Z,13.20
2023-01-19T06:11:14.580Z,11.70
2023-01-19T06:13:42.255Z,12.57
2023-01-19T06:16:10.453Z,11.70
2023-01-19T06:18:37.123Z,10.17
2023-01-19T06:21:08.548Z,15.43
2023-01-19T06:23:36.450Z,12.20
2023-01-19T06:26:03.786Z,18.47
2023-01-19T06:28:30.510Z,15.60
2023-01-19T06:30:57.365Z,10.77
2023-01-19T06:33:24.808Z,13.53
2023-01-19T06:35:51.862Z,14.47
2023-01-19T06:38:19.370Z,14.10
2023-01-19T06:40:51.536Z,15.57
2023-01-19T06:43:18.199Z,15.03
2023-01-19T06:45:46.101Z,13.20
2023-01-19T06:48:12.658Z,21.53
2023-01-19T06:50:39.235Z,16.43
2023-01-19T06:53:05.792Z,16.37
2023-01-19T06:55:32.282Z,17.33
2023-01-19T06:57:59.373Z,16.93
2023-01-19T07:00:26.107Z,12.10
2023-01-19T07:02:52.838Z,15.33
2023-01-19T07:05:19.364Z,12.93
2023-01-19T07:07:51.935Z,11.33
2023-01-19T07:10:18.634Z,11.67
2023-01-19T07:12:47.112Z,11.20
2023-01-19T07:15:19.598Z,13.63
2023-01-19T07:17:46.270Z,12.07
2023-01-19T07:20:14.294Z,10.73
2023-01-19T07:22:43.477Z,9.30
2023-01-19T07:25:10.206Z,9.83
2023-01-19T07:27:36.935Z,9.97
2023-01-19T07:30:04.607Z,12.00
2023-01-19T07:32:31.159Z,10.53
2023-01-19T07:34:57.634Z,11.43
2023-01-19T07:37:24.101Z,10.70
2023-01-19T07:39:50.511Z,9.63
2023-01-19T07:42:17.004Z,9.70
2023-01-19T07:44:43.462Z,10.93
2023-01-19T07:47:12.533Z,12.20
2023-01-19T07:49:39.729Z,13.00
2023-01-19T07:52:06.220Z,11.63
2023-01-19T07:54:33.057Z,10.47
2023-01-19T07:57:00.903Z,8.87
2023-01-19T07:59:30.085Z,10.23
2023-01-19T08:01:59.158Z,11.60
2023-01-19T08:04:27.305Z,10.90
2023-01-19T08:06:55.044Z,9.20
2023-01-19T08:09:21.633Z,11.03
2023-01-19T08:11:48.208Z,11.97
2023-01-19T08:14:14.652Z,8.37
2023-01-19T08:16:41.124Z,9.73
2023-01-19T08:19:08.008Z,9.20
2023-01-19T08:21:35.925Z,12.73
2023-01-19T08:24:02.737Z,9.27
2023-01-19T08:26:33.605Z,14.97
2023-01-19T08:29:03.857Z,8.50
2023-01-19T08:31:31.230Z,8.47
2023-01-19T08:33:58.065Z,8.83
2023-01-19T08:36:25.062Z,9.50
2023-01-19T08:38:52.120Z,9.80
2023-01-19T08:41:18.769Z,7.97
2023-01-19T08:43:45.378Z,10.27
2023-01-19T08:46:12.652Z,9.07
2023-01-19T08:48:39.997Z,13.97
2023-01-19T08:51:06.693Z,7.73
2023-01-19T08:53:33.190Z,9.37
2023-01-19T08:56:02.576Z,9.13
2023-01-19T08:58:29.440Z,7.57
2023-01-19T09:00:56.241Z,8.40
2023-01-19T09:03:22.993Z,9.57
2023-01-19T09:05:50.325Z,9.90
2023-01-19T09:08:17.098Z,9.70
2023-01-19T09:10:49.426Z,12.07
2023-01-19T09:13:16.823Z,6.57
2023-01-19T09:15:44.340Z,6.37
2023-01-19T09:18:13.876Z,9.63
2023-01-19T09:20:42.571Z,8.10
2023-01-19T09:23:16.632Z,7.03
2023-01-19T09:25:45.610Z,7.00
2023-01-19T09:28:14.654Z,7.57
2023-01-19T09:30:42.579Z,6.80
2023-01-19T09:33:12.417Z,7.93
2023-01-19T09:35:39.971Z,7.07
2023-01-19T09:38:08.895Z,7.43
2023-01-19T09:40:42.083Z,6.80
2023-01-19T09:43:13.076Z,6.43
2023-01-19T09:46:01.253Z,8.13
2023-01-19T09:48:47.314Z,6.03
2023-01-19T09:51:25.136Z,5.57
2023-01-19T09:53:56.267Z,6.33
2023-01-19T09:56:23.344Z,6.47
2023-01-19T09:58:51.366Z,7.67
2023-01-19T10:01:34.871Z,6.33
2023-01-19T10:04:15.432Z,7.97
2023-01-19T10:06:43.217Z,6.53
2023-01-19T10:09:35.011Z,7.47
2023-01-19T10:12:10.692Z,8.03
2023-01-19T10:14:45.412Z,8.50
2023-01-19T10:17:30.030Z,7.17
2023-01-19T10:19:58.470Z,8.53
2023-01-19T10:22:28.445Z,7.23
2023-01-19T10:24:57.048Z,7.57
2023-01-19T10:27:28.257Z,7.97
2023-01-19T10:29:54.801Z,10.53
2023-01-19T10:32:31.387Z,8.90
2023-01-19T10:34:59.445Z,9.63
2023-01-19T10:37:31.719Z,9.17
2023-01-19T10:40:07.720Z,8.63
2023-01-19T10:42:41.919Z,8.50
2023-01-19T10:45:22.798Z,7.60
2023-01-19T10:47:50.102Z,8.60
2023-01-19T10:50:29.055Z,8.20
2023-01-19T10:52:59.341Z,7.80
2023-01-19T10:55:30.525Z,8.77
2023-01-19T10:57:58.742Z,14.20
2023-01-19T11:00:31.003Z,9.17
2023-01-19T11:02:57.535Z,9.93
2023-01-19T11:05:27.483Z,11.23
2023-01-19T11:07:54.151Z,10.00
2023-01-19T11:10:22.994Z,10.03
2023-01-19T11:13:01.760Z,10.57
2023-01-19T11:15:35.790Z,9.77
2023-01-19T11:18:05.053Z,10.03
2023-01-19T11:20:44.008Z,11.07
2023-01-19T11:23:22.614Z,10.53
2023-01-19T11:25:50.921Z,10.27
2023-01-19T11:28:27.308Z,10.57
2023-01-19T11:30:59.231Z,12.00
2023-01-19T11:33:33.581Z,10.93
2023-01-19T11:36:06.519Z,13.03
2023-01-19T11:38:40.875Z,11.13
2023-01-19T11:41:27.101Z,12.27
2023-01-19T11:44:15.968Z,12.37
2023-01-19T11:46:45.928Z,12.90
2023-01-19T11:49:37.402Z,12.70
2023-01-19T11:52:19.731Z,12.90
2023-01-19T11:55:14.943Z,12.20
2023-01-19T11:57:47.662Z,13.70
2023-01-19T12:00:54.976Z,12.03
2023-01-19T12:03:32.850Z,12.37
2023-01-19T12:06:05.790Z,13.33
2023-01-19T12:08:44.759Z,12.40
2023-01-19T12:11:18.403Z,13.80
2023-01-19T12:13:46.480Z,13.17
2023-01-19T12:16:21.119Z,12.70
2023-01-19T12:18:53.203Z,11.50
2023-01-19T12:21:21.018Z,15.33
2023-01-19T12:24:05.222Z,11.97
2023-01-19T12:26:46.744Z,14.20
2023-01-19T12:29:17.194Z,15.10
2023-01-19T12:31:43.846Z,15.40
2023-01-19T12:34:26.036Z,16.10
2023-01-19T12:36:55.731Z,15.23
2023-01-19T12:39:23.038Z,17.67
2023-01-19T12:42:08.132Z,16.03
2023-01-19T12:44:35.031Z,14.70
2023-01-19T12:47:20.067Z,17.43
2023-01-19T12:49:51.079Z,14.97
2023-01-19T12:52:30.837Z,15.87
2023-01-19T12:55:01.960Z,16.97
2023-01-19T12:57:46.449Z,19.20
2023-01-19T13:00:22.010Z,15.53
2023-01-19T13:02:50.169Z,16.93
2023-01-19T13:05:19.074Z,19.13
2023-01-19T13:08:11.406Z,17.30
2023-01-19T13:11:13.716Z,18.27
2023-01-19T13:13:49.337Z,14.80
2023-01-19T13:16:18.818Z,16.80
2023-01-19T13:19:07.197Z,12.23
2023-01-19T13:21:44.637Z,18.33
2023-01-19T13:24:16.914Z,17.67
2023-01-19T13:26:55.536Z,14.90
2023-01-19T13:29:34.305Z,16.27
2023-01-19T13:32:04.543Z,18.27
2023-01-19T13:34:40.346Z,16.93
2023-01-19T13:37:15.844Z,14.57
2023-01-19T13:39:44.416Z,17.17
2023-01-19T13:42:30.185Z,15.37
2023-01-19T13:45:00.899Z,17.90
2023-01-19T13:47:41.854Z,20.33
2023-01-19T13:50:30.280Z,18.43
2023-01-19T13:52:58.803Z,18.90
2023-01-19T13:55:30.343Z,17.47
2023-01-19T13:57:57.525Z,16.83
2023-01-19T14:00:26.525Z,17.40
2023-01-19T14:02:55.042Z,12.97
2023-01-19T14:05:23.385Z,15.77
2023-01-19T14:08:02.663Z,15.97
2023-01-19T14:10:31.243Z,19.03
2023-01-19T14:13:00.071Z,17.23
2023-01-19T14:15:29.613Z,17.43
2023-01-19T14:18:30.086Z,20.13
2023-01-19T14:21:03.635Z,15.73
2023-01-19T14:23:52.548Z,14.60
2023-01-19T14:26:37.657Z,14.80
2023-01-19T14:29:23.177Z,16.03
2023-01-19T14:32:00.065Z,14.40
2023-01-19T14:34:45.876Z,16.77
2023-01-19T14:37:23.253Z,16.63
2023-01-19T14:40:08.815Z,16.77
2023-01-19T14:42:39.256Z,20.03
2023-01-19T14:45:21.908Z,18.77
2023-01-19T14:48:01.014Z,16.03
2023-01-19T14:50:36.111Z,17.57
2023-01-19T14:53:13.788Z,16.50
2023-01-19T14:55:52.125Z,15.47
2023-01-19T14:58:21.306Z,15.30
2023-01-19T15:00:48.947Z,12.90
2023-01-19T15:03:15.809Z,18.97
2023-01-19T15:05:44.905Z,14.87
2023-01-19T15:08:16.323Z,13.97
2023-01-19T15:10:43.596Z,17.60
2023-01-19T15:13:19.808Z,17.13
2023-01-19T15:15:46.718Z,18.00
2023-01-19T15:18:16.727Z,15.17
2023-01-19T15:20:43.202Z,16.50
2023-01-19T15:23:11.066Z,14.63
2023-01-19T15:25:39.515Z,18.60
2023-01-19T15:28:11.870Z,16.93
2023-01-19T15:30:38.939Z,17.80
2023-01-19T15:33:06.368Z,15.20
2023-01-19T15:35:32.791Z,13.40
2023-01-19T15:37:59.202Z,16.97
2023-01-19T15:40:25.670Z,14.37
2023-01-19T15:42:52.142Z,18.47
2023-01-19T15:45:43.359Z,17.23
2023-01-19T15:48:11.587Z,13.93
2023-01-19T15:50:41.070Z,17.37
2023-01-19T15:53:12.948Z,14.53
2023-01-19T15:55:39.393Z,16.43
2023-01-19T15:58:06.116Z,13.13
2023-01-19T16:00:34.532Z,18.63
2023-01-19T16:03:02.766Z,15.63
2023-01-19T16:05:41.878Z,15.97
2023-01-19T16:08:09.546Z,13.30
2023-01-19T16:10:36.200Z,16.77
2023-01-19T16:13:04.011Z,15.43
2023-01-19T16:15:30.421Z,23.73
2023-01-19T16:17:56.808Z,28.07
2023-01-19T16:20:23.260Z,19.87
2023-01-19T16:22:49.699Z,22.73
2023-01-19T16:25:16.223Z,23.47
2023-01-19T16:27:43.069Z,21.17
2023-01-19T16:30:11.921Z,19.03
2023-01-19T16:32:38.733Z,19.73
2023-01-19T16:35:05.819Z,26.20
2023-01-19T16:37:32.242Z,24.73
2023-01-19T16:39:58.809Z,23.87
2023-01-19T16:42:25.637Z,19.53
2023-01-19T16:44:52.086Z,24.23
2023-01-19T16:47:18.593Z,30.63
2023-01-19T16:49:44.979Z,23.07
2023-01-19T16:52:11.455Z,23.53
2023-01-19T16:54:43.500Z,21.23
2023-01-19T16:57:11.173Z,25.33
2023-01-19T16:59:39.478Z,23.90
2023-01-19T17:02:06.431Z,24.47
2023-01-19T17:04:32.963Z,24.17
2023-01-19T17:06:59.410Z,26.60
2023-01-19T17:09:25.822Z,27.33
2023-01-19T17:11:52.224Z,29.90
2023-01-19T17:14:22.922Z,29.90
2023-01-19T17:16:49.481Z,31.47
2023-01-19T17:19:18.378Z,25.17
2023-01-19T17:21:46.355Z,26.63
2023-01-19T17:24:12.962Z,29.37
2023-01-19T17:26:39.519Z,27.03
2023-01-19T17:29:08.592Z,27.67
2023-01-19T17:31:36.274Z,31.93
2023-01-19T17:34:02.918Z,29.20
2023-01-19T17:36:31.368Z,28.30
2023-01-19T17:39:00.182Z,29.53
2023-01-19T17:41:29.656Z,25.73
2023-01-19T17:43:56.375Z,32.27
2023-01-19T17:46:25.813Z,28.87
2023-01-19T17:48:57.322Z,28.20
2023-01-19T17:51:24.362Z,34.67
2023-01-19T17:53:52.114Z,29.27
2023-01-19T17:56:25.763Z,29.50
2023-01-19T17:58:52.172Z,31.30
2023-01-19T18:01:22.393Z,29.77
2023-01-19T18:03:49.412Z,29.83
2023-01-19T18:06:16.663Z,32.47
2023-01-19T18:08:46.184Z,31.53
2023-01-19T18:11:13.652Z,32.43
2023-01-19T18:13:43.501Z,33.07
2023-01-19T18:16:14.028Z,33.97
2023-01-19T18:18:41.025Z,35.57
2023-01-19T18:21:09.637Z,39.30
2023-01-19T18:23:36.629Z,32.33
2023-01-19T18:26:10.527Z,30.20
2023-01-19T18:28:37.776Z,35.33
2023-01-19T18:31:08.907Z,33.97
2023-01-19T18:33:35.625Z,38.37
2023-01-19T18:36:02.117Z,33.90
2023-01-19T18:38:28.727Z,37.93
2023-01-19T18:41:01.869Z,39.43
2023-01-19T18:43:29.104Z,37.37
2023-01-19T18:45:55.743Z,38.60
2023-01-19T18:48:22.271Z,41.43
2023-01-19T18:50:48.785Z,42.53
2023-01-19T18:53:15.278Z,34.13
2023-01-19T18:55:52.920Z,39.57
2023-01-19T18:58:19.867Z,36.03
2023-01-19T19:00:46.672Z,43.27
2023-01-19T19:03:13.385Z,43.07
2023-01-19T19:05:40.217Z,42.73
2023-01-19T19:08:06.799Z,37.80
2023-01-19T19:10:33.288Z,48.07
2023-01-19T19:12:59.800Z,41.67
2023-01-19T19:15:27.134Z,44.90
2023-01-19T19:17:54.466Z,45.07
2023-01-19T19:20:22.622Z,45.37
2023-01-19T19:22:49.419Z,51.70
2023-01-19T19:25:16.098Z,49.00
2023-01-19T19:27:45.281Z,49.23
2023-01-19T19:30:13.470Z,45.73
2023-01-19T19:32:40.100Z,48.60
2023-01-19T19:35:06.756Z,45.67
2023-01-19T19:37:33.225Z,47.40
2023-01-19T19:39:59.951Z,49.47
2023-01-19T19:42:26.392Z,52.23
2023-01-19T19:44:52.823Z,48.67
2023-01-19T19:47:19.343Z,56.63
2023-01-19T19:49:45.814Z,52.93
2023-01-19T19:52:12.224Z,53.30
2023-01-19T19:54:38.782Z,52.80
2023-01-19T19:57:05.287Z,56.50
2023-01-19T19:59:31.755Z,51.00
2023-01-19T20:01:58.426Z,50.73
2023-01-19T20:04:25.328Z,52.80
2023-01-19T20:06:52.509Z,56.40
2023-01-19T20:09:18.957Z,50.30
2023-01-19T20:11:46.642Z,55.00
2023-01-19T20:14:14.268Z,53.00
2023-01-19T20:16:40.798Z,51.57
2023-01-19T20:19:07.779Z,55.77
2023-01-19T20:21:39.886Z,54.03
2023-01-19T20:24:10.033Z,54.63
2023-01-19T20:26:40.657Z,57.37
2023-01-19T20:29:07.815Z,60.33
2023-01-19T20:31:37.360Z,57.57
2023-01-19T20:34:05.966Z,60.23
2023-01-19T20:36:33.333Z,57.47
2023-01-19T20:39:00.647Z,54.60
2023-01-19T20:41:29.462Z,54.10
2023-01-19T20:43:55.871Z,59.97
2023-01-19T20:46:22.434Z,50.77
2023-01-19T20:48:52.797Z,58.67
2023-01-19T20:51:20.232Z,54.90
2023-01-19T20:53:47.384Z,59.80
2023-01-19T20:56:14.930Z,56.70
2023-01-19T20:58:41.997Z,55.57
2023-01-19T21:01:15.404Z,61.93
2023-01-19T21:03:42.307Z,58.30
2023-01-19T21:06:09.801Z,57.73
2023-01-19T21:08:37.068Z,63.93
2023-01-19T21:11:05.591Z,59.97
2023-01-19T21:13:32.576Z,59.97
2023-01-19T21:16:00.044Z,62.43
2023-01-19T21:18:27.917Z,60.27
2023-01-19T21:20:57.379Z,54.23
2023-01-19T21:23:25.443Z,60.63
2023-01-19T21:25:53.423Z,58.57
2023-01-19T21:28:21.616Z,58.20
2023-01-19T21:30:48.716Z,58.57
2023-01-19T21:33:16.102Z,57.57
2023-01-19T21:35:55.593Z,60.30
2023-01-19T21:38:23.849Z,61.77
2023-01-19T21:40:50.289Z,61.10
2023-01-19T21:43:19.131Z,60.73
2023-01-19T21:45:46.947Z,62.10
2023-01-19T21:48:13.865Z,64.00
2023-01-19T21:50:40.316Z,59.27
2023-01-19T21:53:09.743Z,60.50
2023-01-19T21:55:36.604Z,64.93
2023-01-19T21:58:08.077Z,60.10
2023-01-19T22:00:34.578Z,65.33
2023-01-19T22:03:04.124Z,62.40
2023-01-19T22:05:36.625Z,64.20
2023-01-19T22:08:05.127Z,61.73
2023-01-19T22:10:34.547Z,62.87
2023-01-19T22:13:01.168Z,61.00
2023-01-19T22:15:28.145Z,64.60
2023-01-19T22:17:54.550Z,61.33
2023-01-19T22:20:20.984Z,60.30
2023-01-19T22:22:47.435Z,61.93
2023-01-19T22:25:14.957Z,61.83
2023-01-19T22:27:42.147Z,62.10
2023-01-19T22:30:09.251Z,61.17
2023-01-19T22:32:35.801Z,58.87
2023-01-19T22:35:04.002Z,65.57
2023-01-19T22:37:35.106Z,63.80
2023-01-19T22:40:06.499Z,60.23
2023-01-19T22:42:33.262Z,62.63
2023-01-19T22:44:59.688Z,68.03
2023-01-19T22:47:26.072Z,64.93
2023-01-19T22:49:52.488Z,59.57
2023-01-19T22:52:19.092Z,55.27
2023-01-19T22:54:45.611Z,65.30
2023-01-19T22:57:12.117Z,59.03
2023-01-19T22:59:38.600Z,58.80
2023-01-19T23:02:05.347Z,62.20
2023-01-19T23:04:31.968Z,57.93
2023-01-19T23:06:58.345Z,59.37
2023-01-19T23:12:15.062Z,52.27
2023-01-19T23:14:41.480Z,60.70
2023-01-19T23:17:08.799Z,60.57
2023-01-19T23:19:35.514Z,58.90
2023-01-19T23:22:02.032Z,59.90
2023-01-19T23:24:28.543Z,64.37
2023-01-19T23:26:54.958Z,55.90
2023-01-19T23:29:21.417Z,58.10
2023-01-19T23:31:50.297Z,58.10
2023-01-19T23:34:17.098Z,60.13
2023-01-19T23:36:43.752Z,56.13
2023-01-19T23:39:19.043Z,61.17
2023-01-19T23:41:46.079Z,57.73
2023-01-19T23:44:13.120Z,56.37
2023-01-19T23:46:39.931Z,54.60
2023-01-19T23:49:06.474Z,64.40
2023-01-19T23:51:33.461Z,53.10
2023-01-19T23:54:00.609Z,60.50
2023-01-19T23:56:30.377Z,59.90
2023-01-19T23:59:03.919Z,57.83
